sensor_id;sensor_type;location;lat;lon;timestamp;temperature;humidity
74968;SHT30;63523;51.880;12.630;2024-03-23T00:56:06;9.03;86.06
74968;SHT30;63523;51.880;12.630;2024-03-23T00:58:32;8.96;86.37
74968;SHT30;63523;51.880;12.630;2024-03-23T01:00:57;8.92;86.67
74968;SHT30;63523;51.880;12.630;2024-03-23T01:03:22;8.97;86.78
74968;SHT30;63523;51.880;12.630;2024-03-23T01:05:47;9.04;87.11
74968;SHT30;63523;51.880;12.630;2024-03-23T01:08:14;9.03;86.95
74968;SHT30;63523;51.880;12.630;2024-03-23T01:10:39;9.04;86.75
74968;SHT30;63523;51.880;12.630;2024-03-23T01:13:04;9.07;86.95
74968;SHT30;63523;51.880;12.630;2024-03-23T01:15:30;9.10;86.46
74968;SHT30;63523;51.880;12.630;2024-03-23T01:17:55;9.10;86.46
74968;SHT30;63523;51.880;12.630;2024-03-23T01:20:20;9.26;85.98
74968;SHT30;63523;51.880;12.630;2024-03-23T01:22:45;9.28;85.79
74968;SHT30;63523;51.880;12.630;2024-03-23T01:25:11;9.25;85.14
74968;SHT30;63523;51.880;12.630;2024-03-23T01:27:36;9.24;85.26
74968;SHT30;63523;51.880;12.630;2024-03-23T01:30:01;9.22;85.07
74968;SHT30;63523;51.880;12.630;2024-03-23T01:32:26;9.14;84.94
74968;SHT30;63523;51.880;12.630;2024-03-23T01:34:52;9.16;85.24
74968;SHT30;63523;51.880;12.630;2024-03-23T01:37:17;9.11;85.04
74968;SHT30;63523;51.880;12.630;2024-03-23T01:39:42;9.03;85.38
74968;SHT30;63523;51.880;12.630;2024-03-23T01:42:07;8.97;85.28
74968;SHT30;63523;51.880;12.630;2024-03-23T01:44:33;8.90;85.33
74968;SHT30;63523;51.880;12.630;2024-03-23T01:46:58;8.87;85.50
74968;SHT30;63523;51.880;12.630;2024-03-23T01:49:24;8.84;85.71
74968;SHT30;63523;51.880;12.630;2024-03-23T01:51:49;8.77;85.80
74968;SHT30;63523;51.880;12.630;2024-03-23T01:54:15;8.83;85.95
74968;SHT30;63523;51.880;12.630;2024-03-23T01:56:40;8.85;86.00
74968;SHT30;63523;51.880;12.630;2024-03-23T01:59:05;8.83;86.21
74968;SHT30;63523;51.880;12.630;2024-03-23T02:01:32;8.90;86.29
74968;SHT30;63523;51.880;12.630;2024-03-23T02:03:57;8.91;85.77
74968;SHT30;63523;51.880;12.630;2024-03-23T02:06:24;8.96;86.15
74968;SHT30;63523;51.880;12.630;2024-03-23T02:08:49;8.92;85.89
74968;SHT30;63523;51.880;12.630;2024-03-23T02:11:15;8.88;85.56
74968;SHT30;63523;51.880;12.630;2024-03-23T02:13:40;8.77;85.60
74968;SHT30;63523;51.880;12.630;2024-03-23T02:16:05;8.71;86.01
74968;SHT30;63523;51.880;12.630;2024-03-23T02:18:32;8.70;86.40
74968;SHT30;63523;51.880;12.630;2024-03-23T02:20:57;8.66;86.44
74968;SHT30;63523;51.880;12.630;2024-03-23T02:23:22;8.62;86.56
74968;SHT30;63523;51.880;12.630;2024-03-23T02:25:49;8.64;86.61
74968;SHT30;63523;51.880;12.630;2024-03-23T02:28:14;8.66;86.50
74968;SHT30;63523;51.880;12.630;2024-03-23T02:30:40;8.63;86.41
74968;SHT30;63523;51.880;12.630;2024-03-23T02:33:05;8.63;86.56
74968;SHT30;63523;51.880;12.630;2024-03-23T02:35:30;8.66;86.59
74968;SHT30;63523;51.880;12.630;2024-03-23T02:37:56;8.67;86.36
74968;SHT30;63523;51.880;12.630;2024-03-23T02:40:23;8.67;86.32
74968;SHT30;63523;51.880;12.630;2024-03-23T02:42:48;8.64;86.26
74968;SHT30;63523;51.880;12.630;2024-03-23T02:45:13;8.62;86.45
74968;SHT30;63523;51.880;12.630;2024-03-23T02:47:38;8.62;86.66
74968;SHT30;63523;51.880;12.630;2024-03-23T02:50:04;8.59;86.74
74968;SHT30;63523;51.880;12.630;2024-03-23T02:52:30;8.59;86.82
74968;SHT30;63523;51.880;12.630;2024-03-23T02:54:56;8.56;86.77
74968;SHT30;63523;51.880;12.630;2024-03-23T02:57:21;8.57;86.89
74968;SHT30;63523;51.880;12.630;2024-03-23T02:59:46;8.54;87.02
74968;SHT30;63523;51.880;12.630;2024-03-23T03:02:13;8.53;87.26
74968;SHT30;63523;51.880;12.630;2024-03-23T03:04:38;8.54;87.36
74968;SHT30;63523;51.880;12.630;2024-03-23T03:07:03;8.54;87.40
74968;SHT30;63523;51.880;12.630;2024-03-23T03:09:29;8.53;87.50
74968;SHT30;63523;51.880;12.630;2024-03-23T03:11:54;8.56;87.54
74968;SHT30;63523;51.880;12.630;2024-03-23T03:14:20;8.62;87.34
74968;SHT30;63523;51.880;12.630;2024-03-23T03:16:45;8.74;86.89
74968;SHT30;63523;51.880;12.630;2024-03-23T03:19:10;8.77;86.36
74968;SHT30;63523;51.880;12.630;2024-03-23T03:21:36;8.73;86.20
74968;SHT30;63523;51.880;12.630;2024-03-23T03:24:02;8.66;86.54
74968;SHT30;63523;51.880;12.630;2024-03-23T03:26:27;8.59;86.82
74968;SHT30;63523;51.880;12.630;2024-03-23T03:28:52;8.56;87.00
74968;SHT30;63523;51.880;12.630;2024-03-23T03:31:18;8.53;87.16
74968;SHT30;63523;51.880;12.630;2024-03-23T03:33:44;8.52;87.23
74968;SHT30;63523;51.880;12.630;2024-03-23T03:36:09;8.54;87.30
74968;SHT30;63523;51.880;12.630;2024-03-23T03:38:35;8.53;87.31
74968;SHT30;63523;51.880;12.630;2024-03-23T03:41:01;8.56;87.39
74968;SHT30;63523;51.880;12.630;2024-03-23T03:43:26;8.53;87.45
74968;SHT30;63523;51.880;12.630;2024-03-23T03:45:55;8.49;87.59
74968;SHT30;63523;51.880;12.630;2024-03-23T03:48:21;8.50;87.57
74968;SHT30;63523;51.880;12.630;2024-03-23T03:50:46;8.45;87.66
74968;SHT30;63523;51.880;12.630;2024-03-23T03:53:11;8.46;87.67
74968;SHT30;63523;51.880;12.630;2024-03-23T03:55:37;8.43;87.63
74968;SHT30;63523;51.880;12.630;2024-03-23T03:58:02;8.39;87.67
74968;SHT30;63523;51.880;12.630;2024-03-23T04:00:27;8.36;87.83
74968;SHT30;63523;51.880;12.630;2024-03-23T04:02:53;8.36;87.72
74968;SHT30;63523;51.880;12.630;2024-03-23T04:05:18;8.35;87.76
74968;SHT30;63523;51.880;12.630;2024-03-23T04:07:45;8.33;87.92
74968;SHT30;63523;51.880;12.630;2024-03-23T04:10:10;8.39;87.96
74968;SHT30;63523;51.880;12.630;2024-03-23T04:12:36;8.39;87.70
74968;SHT30;63523;51.880;12.630;2024-03-23T04:15:01;8.36;87.90
74968;SHT30;63523;51.880;12.630;2024-03-23T04:17:29;8.54;87.21
74968;SHT30;63523;51.880;12.630;2024-03-23T04:19:57;8.69;86.38
74968;SHT30;63523;51.880;12.630;2024-03-23T04:22:22;8.59;86.26
74968;SHT30;63523;51.880;12.630;2024-03-23T04:24:49;8.53;86.67
74968;SHT30;63523;51.880;12.630;2024-03-23T04:27:15;8.60;87.07
74968;SHT30;63523;51.880;12.630;2024-03-23T04:29:40;8.77;86.52
74968;SHT30;63523;51.880;12.630;2024-03-23T04:32:05;8.83;86.15
74968;SHT30;63523;51.880;12.630;2024-03-23T04:34:31;8.83;85.79
74968;SHT30;63523;51.880;12.630;2024-03-23T04:36:58;8.84;85.37
74968;SHT30;63523;51.880;12.630;2024-03-23T04:39:23;8.85;85.19
74968;SHT30;63523;51.880;12.630;2024-03-23T04:41:48;8.74;85.04
74968;SHT30;63523;51.880;12.630;2024-03-23T04:44:13;8.64;85.02
74968;SHT30;63523;51.880;12.630;2024-03-23T04:46:39;8.57;85.50
74968;SHT30;63523;51.880;12.630;2024-03-23T04:49:04;8.52;85.93
74968;SHT30;63523;51.880;12.630;2024-03-23T04:51:35;8.45;86.36
74968;SHT30;63523;51.880;12.630;2024-03-23T04:54:01;8.45;86.64
74968;SHT30;63523;51.880;12.630;2024-03-23T04:56:27;8.43;86.91
74968;SHT30;63523;51.880;12.630;2024-03-23T04:58:52;8.45;86.83
74968;SHT30;63523;51.880;12.630;2024-03-23T05:01:18;8.42;86.87
74968;SHT30;63523;51.880;12.630;2024-03-23T05:03:43;8.42;86.97
74968;SHT30;63523;51.880;12.630;2024-03-23T05:06:09;8.43;87.32
74968;SHT30;63523;51.880;12.630;2024-03-23T05:08:34;8.43;87.26
74968;SHT30;63523;51.880;12.630;2024-03-23T05:10:59;8.46;87.19
74968;SHT30;63523;51.880;12.630;2024-03-23T05:13:24;8.48;87.21
74968;SHT30;63523;51.880;12.630;2024-03-23T05:15:56;8.53;86.99
74968;SHT30;63523;51.880;12.630;2024-03-23T05:18:21;8.67;86.31
74968;SHT30;63523;51.880;12.630;2024-03-23T05:20:47;8.85;85.40
74968;SHT30;63523;51.880;12.630;2024-03-23T05:23:12;8.79;84.99
74968;SHT30;63523;51.880;12.630;2024-03-23T05:25:37;8.71;85.14
74968;SHT30;63523;51.880;12.630;2024-03-23T05:28:03;8.62;85.25
74968;SHT30;63523;51.880;12.630;2024-03-23T05:30:28;8.59;85.83
74968;SHT30;63523;51.880;12.630;2024-03-23T05:32:53;8.62;85.56
74968;SHT30;63523;51.880;12.630;2024-03-23T05:35:19;8.66;84.95
74968;SHT30;63523;51.880;12.630;2024-03-23T05:37:45;8.67;84.37
74968;SHT30;63523;51.880;12.630;2024-03-23T05:40:11;8.67;83.92
74968;SHT30;63523;51.880;12.630;2024-03-23T05:42:37;8.56;84.16
74968;SHT30;63523;51.880;12.630;2024-03-23T05:45:03;8.59;84.16
74968;SHT30;63523;51.880;12.630;2024-03-23T05:47:31;8.50;83.58
74968;SHT30;63523;51.880;12.630;2024-03-23T05:49:57;8.41;84.11
74968;SHT30;63523;51.880;12.630;2024-03-23T05:52:22;8.36;84.48
74968;SHT30;63523;51.880;12.630;2024-03-23T05:54:50;8.29;84.71
74968;SHT30;63523;51.880;12.630;2024-03-23T05:57:15;8.18;85.18
74968;SHT30;63523;51.880;12.630;2024-03-23T05:59:40;8.15;85.37
74968;SHT30;63523;51.880;12.630;2024-03-23T06:02:06;8.05;85.65
74968;SHT30;63523;51.880;12.630;2024-03-23T06:04:31;7.99;85.86
74968;SHT30;63523;51.880;12.630;2024-03-23T06:06:56;7.99;85.91
74968;SHT30;63523;51.880;12.630;2024-03-23T06:09:22;7.97;86.08
74968;SHT30;63523;51.880;12.630;2024-03-23T06:11:48;7.93;86.29
74968;SHT30;63523;51.880;12.630;2024-03-23T06:14:13;7.80;86.68
74968;SHT30;63523;51.880;12.630;2024-03-23T06:16:39;7.79;86.98
74968;SHT30;63523;51.880;12.630;2024-03-23T06:19:04;7.71;86.99
74968;SHT30;63523;51.880;12.630;2024-03-23T06:21:31;7.70;87.08
74968;SHT30;63523;51.880;12.630;2024-03-23T06:23:57;7.66;87.07
74968;SHT30;63523;51.880;12.630;2024-03-23T06:26:22;7.63;87.22
74968;SHT30;63523;51.880;12.630;2024-03-23T06:28:47;7.62;86.68
74968;SHT30;63523;51.880;12.630;2024-03-23T06:31:13;7.62;86.75
74968;SHT30;63523;51.880;12.630;2024-03-23T06:33:38;7.55;87.21
74968;SHT30;63523;51.880;12.630;2024-03-23T06:36:05;7.49;87.28
74968;SHT30;63523;51.880;12.630;2024-03-23T06:38:31;7.43;87.51
74968;SHT30;63523;51.880;12.630;2024-03-23T06:40:56;7.41;87.98
74968;SHT30;63523;51.880;12.630;2024-03-23T06:43:21;7.38;88.26
74968;SHT30;63523;51.880;12.630;2024-03-23T06:45:53;7.51;87.84
74968;SHT30;63523;51.880;12.630;2024-03-23T06:48:19;7.49;87.64
74968;SHT30;63523;51.880;12.630;2024-03-23T06:50:45;7.52;87.68
74968;SHT30;63523;51.880;12.630;2024-03-23T06:53:11;7.56;87.28
74968;SHT30;63523;51.880;12.630;2024-03-23T06:55:36;7.60;87.12
74968;SHT30;63523;51.880;12.630;2024-03-23T06:58:02;7.56;87.22
74968;SHT30;63523;51.880;12.630;2024-03-23T07:00:28;7.52;87.51
74968;SHT30;63523;51.880;12.630;2024-03-23T07:02:53;7.49;87.58
74968;SHT30;63523;51.880;12.630;2024-03-23T07:05:18;7.51;86.87
74968;SHT30;63523;51.880;12.630;2024-03-23T07:07:43;7.41;87.60
74968;SHT30;63523;51.880;12.630;2024-03-23T07:10:09;7.41;88.00
74968;SHT30;63523;51.880;12.630;2024-03-23T07:12:34;7.36;87.35
74968;SHT30;63523;51.880;12.630;2024-03-23T07:14:59;7.25;86.36
74968;SHT30;63523;51.880;12.630;2024-03-23T07:17:25;7.19;87.13
74968;SHT30;63523;51.880;12.630;2024-03-23T07:19:50;7.01;87.55
74968;SHT30;63523;51.880;12.630;2024-03-23T07:22:15;7.01;88.09
74968;SHT30;63523;51.880;12.630;2024-03-23T07:24:40;6.97;87.72
74968;SHT30;63523;51.880;12.630;2024-03-23T07:27:06;6.87;88.00
74968;SHT30;63523;51.880;12.630;2024-03-23T07:29:35;6.83;87.77
74968;SHT30;63523;51.880;12.630;2024-03-23T07:32:00;6.75;87.82
74968;SHT30;63523;51.880;12.630;2024-03-23T07:34:26;6.80;88.00
74968;SHT30;63523;51.880;12.630;2024-03-23T07:36:51;6.76;87.64
74968;SHT30;63523;51.880;12.630;2024-03-23T07:39:16;6.66;87.22
74968;SHT30;63523;51.880;12.630;2024-03-23T07:41:44;6.59;88.02
74968;SHT30;63523;51.880;12.630;2024-03-23T07:44:10;6.62;88.32
74968;SHT30;63523;51.880;12.630;2024-03-23T07:46:35;6.53;87.85
74968;SHT30;63523;51.880;12.630;2024-03-23T07:49:00;6.48;88.43
74968;SHT30;63523;51.880;12.630;2024-03-23T07:51:25;6.49;88.42
74968;SHT30;63523;51.880;12.630;2024-03-23T07:53:51;6.53;88.48
74968;SHT30;63523;51.880;12.630;2024-03-23T07:56:17;6.56;86.86
74968;SHT30;63523;51.880;12.630;2024-03-23T07:58:46;6.43;86.03
74968;SHT30;63523;51.880;12.630;2024-03-23T08:01:16;6.14;85.62
74968;SHT30;63523;51.880;12.630;2024-03-23T08:03:43;5.90;87.11
74968;SHT30;63523;51.880;12.630;2024-03-23T08:06:09;5.77;87.15
74968;SHT30;63523;51.880;12.630;2024-03-23T08:08:35;5.69;87.24
74968;SHT30;63523;51.880;12.630;2024-03-23T08:11:00;5.55;88.13
74968;SHT30;63523;51.880;12.630;2024-03-23T08:13:26;5.59;88.11
74968;SHT30;63523;51.880;12.630;2024-03-23T08:15:51;5.59;88.32
74968;SHT30;63523;51.880;12.630;2024-03-23T08:18:17;5.67;88.76
74968;SHT30;63523;51.880;12.630;2024-03-23T08:20:42;5.71;88.41
74968;SHT30;63523;51.880;12.630;2024-03-23T08:23:07;5.66;88.16
74968;SHT30;63523;51.880;12.630;2024-03-23T08:25:33;5.73;88.12
74968;SHT30;63523;51.880;12.630;2024-03-23T08:27:59;5.70;87.95
74968;SHT30;63523;51.880;12.630;2024-03-23T08:30:24;5.73;88.00
74968;SHT30;63523;51.880;12.630;2024-03-23T08:32:50;5.67;87.98
74968;SHT30;63523;51.880;12.630;2024-03-23T08:35:15;5.55;88.48
74968;SHT30;63523;51.880;12.630;2024-03-23T08:37:40;5.46;88.72
74968;SHT30;63523;51.880;12.630;2024-03-23T08:40:06;5.48;88.41
74968;SHT30;63523;51.880;12.630;2024-03-23T08:42:33;5.48;88.68
74968;SHT30;63523;51.880;12.630;2024-03-23T08:44:58;5.53;88.62
74968;SHT30;63523;51.880;12.630;2024-03-23T08:47:24;5.56;88.29
74968;SHT30;63523;51.880;12.630;2024-03-23T08:49:49;5.60;88.13
74968;SHT30;63523;51.880;12.630;2024-03-23T08:52:14;5.55;88.38
74968;SHT30;63523;51.880;12.630;2024-03-23T08:54:40;5.53;88.41
74968;SHT30;63523;51.880;12.630;2024-03-23T08:57:05;5.56;88.54
74968;SHT30;63523;51.880;12.630;2024-03-23T08:59:32;5.59;87.73
74968;SHT30;63523;51.880;12.630;2024-03-23T09:01:57;5.60;87.65
74968;SHT30;63523;51.880;12.630;2024-03-23T09:04:22;5.53;88.24
74968;SHT30;63523;51.880;12.630;2024-03-23T09:06:48;5.51;87.90
74968;SHT30;63523;51.880;12.630;2024-03-23T09:09:13;5.49;87.91
74968;SHT30;63523;51.880;12.630;2024-03-23T09:11:38;5.43;88.18
74968;SHT30;63523;51.880;12.630;2024-03-23T09:14:04;5.43;87.68
74968;SHT30;63523;51.880;12.630;2024-03-23T09:16:29;5.41;87.83
74968;SHT30;63523;51.880;12.630;2024-03-23T09:18:54;5.39;87.14
74968;SHT30;63523;51.880;12.630;2024-03-23T09:21:19;5.34;87.90
74968;SHT30;63523;51.880;12.630;2024-03-23T09:23:45;5.28;87.82
74968;SHT30;63523;51.880;12.630;2024-03-23T09:26:10;5.28;88.32
74968;SHT30;63523;51.880;12.630;2024-03-23T09:28:36;5.27;88.21
74968;SHT30;63523;51.880;12.630;2024-03-23T09:31:05;5.24;87.90
74968;SHT30;63523;51.880;12.630;2024-03-23T09:33:32;5.28;88.20
74968;SHT30;63523;51.880;12.630;2024-03-23T09:35:57;5.24;88.42
74968;SHT30;63523;51.880;12.630;2024-03-23T09:38:23;5.25;88.34
74968;SHT30;63523;51.880;12.630;2024-03-23T09:40:52;5.21;88.27
74968;SHT30;63523;51.880;12.630;2024-03-23T09:43:18;5.23;88.09
74968;SHT30;63523;51.880;12.630;2024-03-23T09:45:45;5.24;87.89
74968;SHT30;63523;51.880;12.630;2024-03-23T09:48:11;5.23;88.40
74968;SHT30;63523;51.880;12.630;2024-03-23T09:50:38;5.27;87.48
74968;SHT30;63523;51.880;12.630;2024-03-23T09:53:03;5.18;87.65
74968;SHT30;63523;51.880;12.630;2024-03-23T09:55:29;5.18;88.34
74968;SHT30;63523;51.880;12.630;2024-03-23T09:57:54;5.10;88.00
74968;SHT30;63523;51.880;12.630;2024-03-23T10:00:19;5.08;88.41
74968;SHT30;63523;51.880;12.630;2024-03-23T10:02:45;5.10;87.26
74968;SHT30;63523;51.880;12.630;2024-03-23T10:05:20;5.06;87.79
74968;SHT30;63523;51.880;12.630;2024-03-23T10:07:51;4.98;88.16
74968;SHT30;63523;51.880;12.630;2024-03-23T10:10:17;5.08;88.43
74968;SHT30;63523;51.880;12.630;2024-03-23T10:12:47;5.14;87.57
74968;SHT30;63523;51.880;12.630;2024-03-23T10:15:23;5.15;87.97
74968;SHT30;63523;51.880;12.630;2024-03-23T10:17:49;5.24;88.23
74968;SHT30;63523;51.880;12.630;2024-03-23T10:20:22;5.31;88.60
74968;SHT30;63523;51.880;12.630;2024-03-23T10:22:48;5.53;89.01
74968;SHT30;63523;51.880;12.630;2024-03-23T10:25:13;5.67;88.33
74968;SHT30;63523;51.880;12.630;2024-03-23T10:27:39;5.77;88.06
74968;SHT30;63523;51.880;12.630;2024-03-23T10:30:12;5.85;88.65
74968;SHT30;63523;51.880;12.630;2024-03-23T10:32:38;5.87;88.05
74968;SHT30;63523;51.880;12.630;2024-03-23T10:35:17;5.89;87.95
74968;SHT30;63523;51.880;12.630;2024-03-23T10:37:49;5.90;86.59
74968;SHT30;63523;51.880;12.630;2024-03-23T10:40:16;5.90;87.23
74968;SHT30;63523;51.880;12.630;2024-03-23T10:42:43;5.97;87.77
74968;SHT30;63523;51.880;12.630;2024-03-23T10:45:09;5.94;87.84
74968;SHT30;63523;51.880;12.630;2024-03-23T10:47:36;5.91;86.57
74968;SHT30;63523;51.880;12.630;2024-03-23T10:50:02;6.00;87.24
74968;SHT30;63523;51.880;12.630;2024-03-23T10:52:28;5.93;87.14
74968;SHT30;63523;51.880;12.630;2024-03-23T10:54:54;5.91;87.20
74968;SHT30;63523;51.880;12.630;2024-03-23T10:57:25;5.89;87.28
74968;SHT30;63523;51.880;12.630;2024-03-23T10:59:52;5.86;86.90
74968;SHT30;63523;51.880;12.630;2024-03-23T11:02:19;5.90;87.43
74968;SHT30;63523;51.880;12.630;2024-03-23T11:04:45;6.10;87.78
74968;SHT30;63523;51.880;12.630;2024-03-23T11:07:32;6.03;86.43
74968;SHT30;63523;51.880;12.630;2024-03-23T11:09:59;6.00;86.97
74968;SHT30;63523;51.880;12.630;2024-03-23T11:12:25;5.94;86.99
74968;SHT30;63523;51.880;12.630;2024-03-23T11:17:22;6.04;87.48
74968;SHT30;63523;51.880;12.630;2024-03-23T11:19:57;6.13;86.86
74968;SHT30;63523;51.880;12.630;2024-03-23T11:22:38;6.13;86.00
74968;SHT30;63523;51.880;12.630;2024-03-23T11:27:39;6.20;86.90
74968;SHT30;63523;51.880;12.630;2024-03-23T11:30:30;6.52;87.29
74968;SHT30;63523;51.880;12.630;2024-03-23T11:32:57;6.69;86.00
74968;SHT30;63523;51.880;12.630;2024-03-23T11:40:26;6.86;85.90
74968;SHT30;63523;51.880;12.630;2024-03-23T11:42:56;6.90;85.91
74968;SHT30;63523;51.880;12.630;2024-03-23T11:45:21;6.88;86.06
74968;SHT30;63523;51.880;12.630;2024-03-23T11:47:46;7.00;86.52
74968;SHT30;63523;51.880;12.630;2024-03-23T11:50:19;6.98;86.01
74968;SHT30;63523;51.880;12.630;2024-03-23T11:52:44;7.03;85.82
74968;SHT30;63523;51.880;12.630;2024-03-23T11:55:09;7.19;85.56
74968;SHT30;63523;51.880;12.630;2024-03-23T11:57:35;7.41;85.91
74968;SHT30;63523;51.880;12.630;2024-03-23T12:00:00;7.52;85.19
74968;SHT30;63523;51.880;12.630;2024-03-23T12:02:26;7.62;85.00
74968;SHT30;63523;51.880;12.630;2024-03-23T12:04:51;7.87;84.26
74968;SHT30;63523;51.880;12.630;2024-03-23T12:07:20;7.90;83.21
74968;SHT30;63523;51.880;12.630;2024-03-23T12:09:49;7.83;83.97
74968;SHT30;63523;51.880;12.630;2024-03-23T12:12:27;7.71;82.97
74968;SHT30;63523;51.880;12.630;2024-03-23T12:15:06;8.05;84.66
74968;SHT30;63523;51.880;12.630;2024-03-23T12:17:32;8.21;83.41
74968;SHT30;63523;51.880;12.630;2024-03-23T12:19:57;8.54;84.33
74968;SHT30;63523;51.880;12.630;2024-03-23T12:22:24;8.66;82.36
74968;SHT30;63523;51.880;12.630;2024-03-23T12:24:49;9.01;83.10
74968;SHT30;63523;51.880;12.630;2024-03-23T12:27:15;8.96;79.74
74968;SHT30;63523;51.880;12.630;2024-03-23T12:29:41;8.87;80.81
74968;SHT30;63523;51.880;12.630;2024-03-23T12:32:11;8.87;80.52
74968;SHT30;63523;51.880;12.630;2024-03-23T12:34:36;9.10;83.17
74968;SHT30;63523;51.880;12.630;2024-03-23T12:37:02;9.19;80.86
74968;SHT30;63523;51.880;12.630;2024-03-23T12:39:27;8.80;79.32
74968;SHT30;63523;51.880;12.630;2024-03-23T12:41:52;8.41;80.43
74968;SHT30;63523;51.880;12.630;2024-03-23T12:44:18;7.86;80.73
74968;SHT30;63523;51.880;12.630;2024-03-23T12:46:44;7.36;82.15
74968;SHT30;63523;51.880;12.630;2024-03-23T12:49:10;7.09;82.78
74968;SHT30;63523;51.880;12.630;2024-03-23T12:51:36;6.94;83.56
74968;SHT30;63523;51.880;12.630;2024-03-23T12:54:02;7.01;84.33
74968;SHT30;63523;51.880;12.630;2024-03-23T12:56:27;7.09;82.89
74968;SHT30;63523;51.880;12.630;2024-03-23T12:58:58;7.16;85.65
74968;SHT30;63523;51.880;12.630;2024-03-23T13:01:24;7.34;83.38
74968;SHT30;63523;51.880;12.630;2024-03-23T13:03:50;7.36;83.37
74968;SHT30;63523;51.880;12.630;2024-03-23T13:06:16;7.48;84.33
74968;SHT30;63523;51.880;12.630;2024-03-23T13:08:44;7.88;86.61
74968;SHT30;63523;51.880;12.630;2024-03-23T13:11:09;8.08;83.26
74968;SHT30;63523;51.880;12.630;2024-03-23T13:13:36;7.83;81.69
74968;SHT30;63523;51.880;12.630;2024-03-23T13:16:01;7.69;82.53
74968;SHT30;63523;51.880;12.630;2024-03-23T13:18:28;7.55;82.97
74968;SHT30;63523;51.880;12.630;2024-03-23T13:20:54;7.31;82.19
74968;SHT30;63523;51.880;12.630;2024-03-23T13:23:19;7.24;83.66
74968;SHT30;63523;51.880;12.630;2024-03-23T13:25:54;7.39;84.57
74968;SHT30;63523;51.880;12.630;2024-03-23T13:28:20;7.52;84.48
74968;SHT30;63523;51.880;12.630;2024-03-23T13:30:50;7.60;84.50
74968;SHT30;63523;51.880;12.630;2024-03-23T13:33:15;7.67;85.06
74968;SHT30;63523;51.880;12.630;2024-03-23T13:35:57;7.73;84.13
74968;SHT30;63523;51.880;12.630;2024-03-23T13:38:22;7.91;83.95
74968;SHT30;63523;51.880;12.630;2024-03-23T13:40:55;8.21;83.80
74968;SHT30;63523;51.880;12.630;2024-03-23T13:43:21;8.24;82.73
74968;SHT30;63523;51.880;12.630;2024-03-23T13:45:47;8.54;81.32
74968;SHT30;63523;51.880;12.630;2024-03-23T13:48:14;8.33;80.12
74968;SHT30;63523;51.880;12.630;2024-03-23T13:50:41;8.28;82.20
74968;SHT30;63523;51.880;12.630;2024-03-23T13:53:06;8.36;82.05
74968;SHT30;63523;51.880;12.630;2024-03-23T13:55:33;8.29;80.12
74968;SHT30;63523;51.880;12.630;2024-03-23T13:57:58;8.56;81.38
74968;SHT30;63523;51.880;12.630;2024-03-23T14:00:23;8.63;81.36
74968;SHT30;63523;51.880;12.630;2024-03-23T14:02:49;8.79;81.80
74968;SHT30;63523;51.880;12.630;2024-03-23T14:05:14;8.98;82.21
74968;SHT30;63523;51.880;12.630;2024-03-23T14:07:39;9.11;80.10
74968;SHT30;63523;51.880;12.630;2024-03-23T14:10:06;8.90;79.74
74968;SHT30;63523;51.880;12.630;2024-03-23T14:12:32;8.46;76.75
74968;SHT30;63523;51.880;12.630;2024-03-23T14:14:57;8.12;78.60
74968;SHT30;63523;51.880;12.630;2024-03-23T14:17:24;7.70;79.81
74968;SHT30;63523;51.880;12.630;2024-03-23T14:19:51;7.15;79.25
74968;SHT30;63523;51.880;12.630;2024-03-23T14:22:16;6.86;81.20
74968;SHT30;63523;51.880;12.630;2024-03-23T14:24:45;6.77;82.16
74968;SHT30;63523;51.880;12.630;2024-03-23T14:27:17;6.77;83.21
74968;SHT30;63523;51.880;12.630;2024-03-23T14:29:45;6.77;83.35
74968;SHT30;63523;51.880;12.630;2024-03-23T14:32:11;6.83;84.95
74968;SHT30;63523;51.880;12.630;2024-03-23T14:34:36;6.96;84.08
74968;SHT30;63523;51.880;12.630;2024-03-23T14:37:02;7.08;84.10
74968;SHT30;63523;51.880;12.630;2024-03-23T14:39:27;7.09;83.99
74968;SHT30;63523;51.880;12.630;2024-03-23T14:41:52;7.14;84.40
74968;SHT30;63523;51.880;12.630;2024-03-23T14:44:17;7.09;83.52
74968;SHT30;63523;51.880;12.630;2024-03-23T14:46:43;7.04;83.50
74968;SHT30;63523;51.880;12.630;2024-03-23T14:49:08;7.04;84.66
74968;SHT30;63523;51.880;12.630;2024-03-23T14:51:33;7.03;83.76
74968;SHT30;63523;51.880;12.630;2024-03-23T14:53:58;6.91;78.99
74968;SHT30;63523;51.880;12.630;2024-03-23T14:56:24;6.60;82.25
74968;SHT30;63523;51.880;12.630;2024-03-23T14:58:52;6.35;82.12
74968;SHT30;63523;51.880;12.630;2024-03-23T15:01:18;6.06;82.75
74968;SHT30;63523;51.880;12.630;2024-03-23T15:03:44;5.71;83.76
74968;SHT30;63523;51.880;12.630;2024-03-23T15:06:09;5.38;84.59
74968;SHT30;63523;51.880;12.630;2024-03-23T15:08:35;5.18;85.57
74968;SHT30;63523;51.880;12.630;2024-03-23T15:11:01;5.17;86.33
74968;SHT30;63523;51.880;12.630;2024-03-23T15:13:37;5.31;87.01
74968;SHT30;63523;51.880;12.630;2024-03-23T15:16:03;5.60;87.69
74968;SHT30;63523;51.880;12.630;2024-03-23T15:18:29;5.70;87.27
74968;SHT30;63523;51.880;12.630;2024-03-23T15:20:59;5.71;87.54
74968;SHT30;63523;51.880;12.630;2024-03-23T15:23:28;5.76;87.56
74968;SHT30;63523;51.880;12.630;2024-03-23T15:25:55;5.73;87.54
74968;SHT30;63523;51.880;12.630;2024-03-23T15:28:21;5.81;87.90
74968;SHT30;63523;51.880;12.630;2024-03-23T15:30:46;5.91;88.33
74968;SHT30;63523;51.880;12.630;2024-03-23T15:33:12;6.04;88.03
74968;SHT30;63523;51.880;12.630;2024-03-23T15:35:37;6.08;87.59
74968;SHT30;63523;51.880;12.630;2024-03-23T15:38:03;6.04;87.42
74968;SHT30;63523;51.880;12.630;2024-03-23T15:40:28;6.04;87.50
74968;SHT30;63523;51.880;12.630;2024-03-23T15:42:54;5.98;87.30
74968;SHT30;63523;51.880;12.630;2024-03-23T15:45:19;5.94;87.41
74968;SHT30;63523;51.880;12.630;2024-03-23T15:47:44;5.90;87.61
74968;SHT30;63523;51.880;12.630;2024-03-23T15:50:10;5.91;88.05
74968;SHT30;63523;51.880;12.630;2024-03-23T15:52:36;5.98;87.77
74968;SHT30;63523;51.880;12.630;2024-03-23T15:55:03;6.11;87.90
74968;SHT30;63523;51.880;12.630;2024-03-23T15:57:34;6.18;87.34
74968;SHT30;63523;51.880;12.630;2024-03-23T16:00:00;6.26;87.28
74968;SHT30;63523;51.880;12.630;2024-03-23T16:02:25;6.32;87.20
74968;SHT30;63523;51.880;12.630;2024-03-23T16:04:52;6.35;87.05
74968;SHT30;63523;51.880;12.630;2024-03-23T16:07:18;6.39;85.35
74968;SHT30;63523;51.880;12.630;2024-03-23T16:09:43;6.18;84.79
74968;SHT30;63523;51.880;12.630;2024-03-23T16:12:08;6.03;84.88
74968;SHT30;63523;51.880;12.630;2024-03-23T16:14:34;5.93;85.62
74968;SHT30;63523;51.880;12.630;2024-03-23T16:16:59;5.89;86.16
74968;SHT30;63523;51.880;12.630;2024-03-23T16:19:24;5.91;86.45
74968;SHT30;63523;51.880;12.630;2024-03-23T16:21:50;5.97;86.64
74968;SHT30;63523;51.880;12.630;2024-03-23T16:24:15;5.94;86.37
74968;SHT30;63523;51.880;12.630;2024-03-23T16:26:40;5.96;86.52
74968;SHT30;63523;51.880;12.630;2024-03-23T16:29:06;6.00;86.52